createdAt,value
2019-02-14T00:01:19.619Z,101870.86
2019-02-14T00:04:21.536Z,101862.25
2019-02-14T00:07:23.498Z,101867.34
2019-02-14T00:10:25.461Z,101865.31
2019-02-14T00:13:27.388Z,101868.54
2019-02-14T00:16:29.259Z,101866.02
2019-02-14T00:19:31.262Z,101870.27
2019-02-14T00:22:33.194Z,101859.85
2019-02-14T00:25:35.078Z,101860.56
2019-02-14T00:28:37.301Z,101857.50
2019-02-14T00:31:39.213Z,101863.39
2019-02-14T00:34:41.088Z,101870.09
2019-02-14T00:37:42.989Z,101872.18
2019-02-14T00:40:44.912Z,101875.96
2019-02-14T00:43:46.847Z,101883.91
2019-02-14T00:46:48.789Z,101881.17
2019-02-14T00:49:50.709Z,101877.69
2019-02-14T00:52:52.686Z,101880.42
2019-02-14T00:55:54.614Z,101878.44
2019-02-14T00:58:56.587Z,101882.62
2019-02-14T01:01:59.861Z,101892.70
2019-02-14T01:05:01.791Z,101891.86
2019-02-14T01:08:03.908Z,101898.09
2019-02-14T01:11:05.792Z,101897.59
2019-02-14T01:14:07.746Z,101887.75
2019-02-14T01:17:09.606Z,101888.20
2019-02-14T01:20:11.711Z,101883.47
2019-02-14T01:23:13.613Z,101882.25
2019-02-14T01:26:16.159Z,101886.09
2019-02-14T01:29:18.203Z,101879.86
2019-02-14T01:32:20.295Z,101882.70
2019-02-14T01:35:22.180Z,101872.41
2019-02-14T01:38:24.137Z,101878.40
2019-02-14T01:41:26.102Z,101883.02
2019-02-14T01:44:28.056Z,101878.44
2019-02-14T01:47:29.925Z,101875.96
2019-02-14T01:50:31.871Z,101873.94
2019-02-14T01:53:33.818Z,101885.28
2019-02-14T01:56:35.725Z,101892.40
2019-02-14T01:59:37.740Z,101881.70
2019-02-14T02:02:39.627Z,101888.46
2019-02-14T02:05:41.496Z,101886.67
2019-02-14T02:08:43.404Z,101890.52
2019-02-14T02:11:45.311Z,101893.88
2019-02-14T02:14:47.281Z,101892.42
2019-02-14T02:17:49.149Z,101885.19
2019-02-14T02:20:51.054Z,101885.48
2019-02-14T02:23:52.982Z,101890.30
2019-02-14T02:26:56.874Z,101890.67
2019-02-14T02:29:58.934Z,101898.65
2019-02-14T02:33:00.855Z,101897.97
2019-02-14T02:36:02.786Z,101894.84
2019-02-14T02:39:06.643Z,101893.66
2019-02-14T02:42:08.565Z,101894.70
2019-02-14T02:45:11.418Z,101900.63
2019-02-14T02:48:13.364Z,101906.88
2019-02-14T02:51:15.218Z,101900.03
2019-02-14T02:54:17.080Z,101914.68
2019-02-14T02:57:20.185Z,101913.31
2019-02-14T03:00:22.386Z,101905.87
2019-02-14T03:03:24.288Z,101906.81
2019-02-14T03:06:26.248Z,101905.80
2019-02-14T03:09:28.123Z,101905.59
2019-02-14T03:12:30.067Z,101908.63
2019-02-14T03:15:32.033Z,101908.53
2019-02-14T03:18:33.905Z,101906.66
2019-02-14T03:21:35.892Z,101904.96
2019-02-14T03:24:37.760Z,101912.58
2019-02-14T03:27:40.326Z,101910.68
2019-02-14T03:30:42.371Z,101911.20
2019-02-14T03:33:44.310Z,101918.98
2019-02-14T03:36:46.164Z,101922.69
2019-02-14T03:39:48.047Z,101926.58
2019-02-14T03:42:51.725Z,101924.47
2019-02-14T03:45:53.618Z,101924.77
2019-02-14T03:48:55.504Z,101935.73
2019-02-14T03:51:57.351Z,101931.76
2019-02-14T03:54:59.421Z,101915.33
2019-02-14T03:58:01.320Z,101930.98
2019-02-14T04:01:03.301Z,101937.74
2019-02-14T04:04:05.177Z,101940.77
2019-02-14T04:07:07.261Z,101945.94
2019-02-14T04:10:13.102Z,101950.23
2019-02-14T04:13:14.998Z,101945.98
2019-02-14T04:16:16.968Z,101947.27
2019-02-14T04:19:18.874Z,101932.48
2019-02-14T04:22:20.856Z,101943.69
2019-02-14T04:25:22.745Z,101929.24
2019-02-14T04:28:24.705Z,101928.70
2019-02-14T04:31:26.729Z,101930.91
2019-02-14T04:34:28.626Z,101931.36
2019-02-14T04:37:30.536Z,101930.28
2019-02-14T04:40:33.801Z,101932.43
2019-02-14T04:43:35.940Z,101926.95
2019-02-14T04:46:37.941Z,101930.20
2019-02-14T04:49:39.875Z,101931.36
2019-02-14T04:52:42.302Z,101935.67
2019-02-14T04:55:44.233Z,101936.16
2019-02-14T04:58:46.214Z,101935.74
2019-02-14T05:01:48.174Z,101934.38
2019-02-14T05:04:50.140Z,101940.20
2019-02-14T05:07:52.038Z,101940.71
2019-02-14T05:10:53.967Z,101936.69
2019-02-14T05:13:55.911Z,101938.84
2019-02-14T05:16:57.826Z,101931.56
2019-02-14T05:19:59.733Z,101934.66
2019-02-14T05:23:01.657Z,101940.23
2019-02-14T05:26:03.551Z,101935.77
2019-02-14T05:29:05.459Z,101946.33
2019-02-14T05:32:07.508Z,101959.11
2019-02-14T05:35:09.501Z,101958.46
2019-02-14T05:38:11.411Z,101950.23
2019-02-14T05:41:13.335Z,101953.83
2019-02-14T05:44:15.273Z,101955.05
2019-02-14T05:47:17.184Z,101951.33
2019-02-14T05:50:19.058Z,101953.23
2019-02-14T05:53:21.412Z,101958.09
2019-02-14T05:56:23.756Z,101956.92
2019-02-14T05:59:25.682Z,101973.15
2019-02-14T06:02:27.737Z,101975.89
2019-02-14T06:05:29.664Z,101987.64
2019-02-14T06:08:33.177Z,101995.12
2019-02-14T06:11:35.246Z,101989.97
2019-02-14T06:14:37.255Z,102002.90
2019-02-14T06:17:39.163Z,102004.70
2019-02-14T06:20:41.086Z,102014.30
2019-02-14T06:23:43.009Z,102018.73
2019-02-14T06:26:44.945Z,102020.50
2019-02-14T06:29:46.840Z,102021.04
2019-02-14T06:32:48.940Z,102013.86
2019-02-14T06:35:50.879Z,102009.21
2019-02-14T06:38:52.794Z,102017.78
2019-02-14T06:41:54.728Z,102025.50
2019-02-14T06:44:56.668Z,102036.36
2019-02-14T06:47:58.695Z,102041.94
2019-02-14T06:51:00.553Z,102042.44
2019-02-14T06:54:02.474Z,102037.28
2019-02-14T06:57:05.393Z,102039.59
2019-02-14T07:00:11.041Z,102042.33
2019-02-14T07:03:13.024Z,102049.38
2019-02-14T07:06:14.953Z,102046.00
2019-02-14T07:09:16.913Z,102055.35
2019-02-14T07:12:18.917Z,102058.52
2019-02-14T07:15:20.783Z,102060.59
2019-02-14T07:18:22.709Z,102057.95
2019-02-14T07:21:24.684Z,102068.17
2019-02-14T07:24:26.636Z,102074.28
2019-02-14T07:27:28.537Z,102077.46
2019-02-14T07:30:30.471Z,102081.58
2019-02-14T07:33:32.619Z,102085.35
2019-02-14T07:36:34.491Z,102071.55
2019-02-14T07:39:37.387Z,102071.79
2019-02-14T07:42:39.297Z,102073.16
2019-02-14T07:45:41.385Z,102076.83
2019-02-14T07:48:43.385Z,102062.83
2019-02-14T07:51:45.429Z,102069.23
2019-02-14T07:54:47.399Z,102064.78
2019-02-14T07:57:49.348Z,102062.73
2019-02-14T08:00:51.225Z,102065.48
2019-02-14T08:03:53.235Z,102071.36
2019-02-14T08:06:55.186Z,102064.16
2019-02-14T08:09:57.172Z,102062.52
2019-02-14T08:12:59.145Z,102065.94
2019-02-14T08:16:01.106Z,102069.34
2019-02-14T08:19:02.978Z,102057.03
2019-02-14T08:22:04.942Z,102070.36
2019-02-14T08:25:09.133Z,102075.94
2019-02-14T08:28:11.067Z,102075.57
2019-02-14T08:31:12.987Z,102077.78
2019-02-14T08:34:15.127Z,102079.23
2019-02-14T08:37:18.266Z,102077.95
2019-02-14T08:40:25.087Z,102085.67
2019-02-14T08:43:26.951Z,102085.67
2019-02-14T08:46:28.898Z,102089.04
2019-02-14T08:49:30.777Z,102093.47
2019-02-14T08:52:32.690Z,102098.00
2019-02-14T08:55:34.618Z,102102.95
2019-02-14T08:58:36.554Z,102102.50
2019-02-14T09:01:38.588Z,102115.78
2019-02-14T09:04:40.564Z,102118.24
2019-02-14T09:07:42.502Z,102123.37
2019-02-14T09:10:44.441Z,102129.85
2019-02-14T09:13:46.395Z,102143.86
2019-02-14T09:16:48.315Z,102147.98
2019-02-14T09:19:50.263Z,102134.55
2019-02-14T09:22:52.698Z,102127.21
2019-02-14T09:25:54.680Z,102122.48
2019-02-14T09:28:56.610Z,102129.23
2019-02-14T09:31:58.520Z,102126.03
2019-02-14T09:35:00.559Z,102132.14
2019-02-14T09:38:03.678Z,102133.52
2019-02-14T09:41:05.959Z,102132.53
2019-02-14T09:44:07.958Z,102136.89
2019-02-14T09:47:09.844Z,102127.88
2019-02-14T09:50:13.280Z,102116.88
2019-02-14T09:53:15.177Z,102121.33
2019-02-14T09:56:17.110Z,102130.66
2019-02-14T09:59:19.000Z,102125.00
2019-02-14T10:02:20.979Z,102116.46
2019-02-14T10:05:22.992Z,102107.80
2019-02-14T10:08:24.988Z,102091.44
2019-02-14T10:11:26.992Z,102096.55
2019-02-14T10:14:28.973Z,102083.20
2019-02-14T10:17:30.878Z,102083.19
2019-02-14T10:20:32.861Z,102082.05
2019-02-14T10:23:34.797Z,102078.32
2019-02-14T10:26:36.693Z,102069.53
2019-02-14T10:29:38.708Z,102072.50
2019-02-14T10:32:40.645Z,102075.41
2019-02-14T10:35:42.885Z,102062.89
2019-02-14T10:38:44.855Z,102069.20
2019-02-14T10:41:46.749Z,102054.24
2019-02-14T10:44:48.691Z,102052.80
2019-02-14T10:47:50.555Z,102044.52
2019-02-14T10:50:52.554Z,102031.09
2019-02-14T10:53:54.552Z,102033.99
2019-02-14T10:56:56.501Z,102046.11
2019-02-14T10:59:58.601Z,102068.83
2019-02-14T11:03:00.452Z,102078.06
2019-02-14T11:06:02.430Z,102085.92
2019-02-14T11:09:05.057Z,102095.55
2019-02-14T11:12:06.940Z,102092.25
2019-02-14T11:15:14.997Z,102091.34
2019-02-14T11:18:16.951Z,102080.78
2019-02-14T11:21:19.015Z,102082.55
2019-02-14T11:24:20.919Z,102078.41
2019-02-14T11:27:22.908Z,102077.14
2019-02-14T11:30:24.816Z,102080.64
2019-02-14T11:33:26.788Z,102080.18
2019-02-14T11:36:28.819Z,102077.75
2019-02-14T11:39:30.939Z,102084.20
2019-02-14T11:42:32.967Z,102088.86
2019-02-14T11:45:34.905Z,102098.48
2019-02-14T11:48:36.824Z,102097.05
2019-02-14T11:51:38.761Z,102100.84
2019-02-14T11:54:40.619Z,102103.05
2019-02-14T11:57:42.582Z,102097.95
2019-02-14T12:00:44.462Z,102101.09
2019-02-14T12:03:46.950Z,102095.05
2019-02-14T12:06:49.030Z,102088.32
2019-02-14T12:09:51.109Z,102093.20
2019-02-14T12:12:53.238Z,102096.25
2019-02-14T12:15:55.244Z,102098.70
2019-02-14T12:18:57.160Z,102099.80
2019-02-14T12:21:59.208Z,102100.41
2019-02-14T12:25:01.116Z,102105.53
2019-02-14T12:28:03.083Z,102102.92
2019-02-14T12:31:05.049Z,102098.90
2019-02-14T12:34:06.945Z,102093.79
2019-02-14T12:37:09.133Z,102092.73
2019-02-14T12:40:12.416Z,102091.21
2019-02-14T12:43:14.506Z,102090.67
2019-02-14T12:46:16.455Z,102079.38
2019-02-14T12:49:18.407Z,102077.06
2019-02-14T12:52:20.786Z,102073.11
2019-02-14T12:55:22.795Z,102075.86
2019-02-14T12:58:24.744Z,102060.76
2019-02-14T13:01:26.723Z,102065.79
2019-02-14T13:04:28.619Z,102079.53
2019-02-14T13:07:30.597Z,102077.48
2019-02-14T13:10:32.538Z,102074.81
2019-02-14T13:13:34.641Z,102085.42
2019-02-14T13:16:36.632Z,102088.70
2019-02-14T13:19:38.630Z,102096.03
2019-02-14T13:22:40.556Z,102098.31
2019-02-14T13:25:42.716Z,102099.39
2019-02-14T13:28:44.607Z,102096.31
2019-02-14T13:31:46.602Z,102094.64
2019-02-14T13:34:48.517Z,102090.98
2019-02-14T13:37:51.870Z,102092.65
2019-02-14T13:40:54.680Z,102089.77
2019-02-14T13:43:57.037Z,102084.24
2019-02-14T13:46:58.968Z,102086.42
2019-02-14T13:50:00.941Z,102079.16
2019-02-14T13:53:02.872Z,102076.70
2019-02-14T13:56:04.846Z,102070.05
2019-02-14T13:59:06.785Z,102078.22
2019-02-14T14:02:08.702Z,102067.04
2019-02-14T14:05:10.670Z,102065.81
2019-02-14T14:08:13.903Z,102066.64
2019-02-14T14:11:15.799Z,102068.52
2019-02-14T14:14:17.744Z,102063.16
2019-02-14T14:17:19.645Z,102059.63
2019-02-14T14:20:21.545Z,102063.16
2019-02-14T14:23:23.490Z,102060.66
2019-02-14T14:26:25.462Z,102061.70
2019-02-14T14:29:27.436Z,102060.16
2019-02-14T14:32:29.848Z,102054.94
2019-02-14T14:35:31.913Z,102062.44
2019-02-14T14:38:34.211Z,102061.06
2019-02-14T14:41:36.288Z,102056.51
2019-02-14T14:44:40.016Z,102059.98
2019-02-14T14:47:42.167Z,102061.17
2019-02-14T14:50:44.153Z,102058.60
2019-02-14T14:53:46.121Z,102058.39
2019-02-14T14:56:49.474Z,102060.84
2019-02-14T14:59:51.439Z,102053.11
2019-02-14T15:02:53.361Z,102046.19
2019-02-14T15:05:57.117Z,102052.91
2019-02-14T15:09:00.079Z,102051.32
2019-02-14T15:12:02.511Z,102062.25
2019-02-14T15:15:06.023Z,102060.72
2019-02-14T15:18:08.476Z,102057.31
2019-02-14T15:21:10.559Z,102058.07
2019-02-14T15:24:12.676Z,102063.03
2019-02-14T15:27:15.034Z,102050.83
2019-02-14T15:30:20.201Z,102051.34
2019-02-14T15:33:22.222Z,102049.67
2019-02-14T15:36:26.531Z,102057.84
2019-02-14T15:39:28.415Z,102056.25
2019-02-14T15:42:30.721Z,102048.84
2019-02-14T15:45:32.914Z,102053.13
2019-02-14T15:48:34.921Z,102052.73
2019-02-14T15:51:37.122Z,102043.83
2019-02-14T15:54:40.886Z,102046.78
2019-02-14T15:57:44.768Z,102047.03
2019-02-14T16:00:46.806Z,102049.61
2019-02-14T16:03:48.946Z,102047.79
2019-02-14T16:06:52.694Z,102042.14
2019-02-14T16:10:06.626Z,102038.98
2019-02-14T16:13:09.831Z,102030.22
2019-02-14T16:16:12.366Z,102024.11
2019-02-14T16:19:16.138Z,102019.16
2019-02-14T16:22:19.829Z,102028.98
2019-02-14T16:25:21.751Z,102036.31
2019-02-14T16:28:25.599Z,102026.23
2019-02-14T16:31:27.740Z,102024.55
2019-02-14T16:34:29.702Z,102025.16
2019-02-14T16:37:34.372Z,102015.71
2019-02-14T16:40:39.675Z,102018.55
2019-02-14T16:43:42.533Z,102025.33
2019-02-14T16:46:44.443Z,102016.30
2019-02-14T16:49:46.476Z,102022.28
2019-02-14T16:52:49.893Z,102027.45
2019-02-14T16:56:01.689Z,102035.69
2019-02-14T16:58:57.122Z,102035.77
2019-02-14T17:01:59.148Z,102031.27
2019-02-14T17:05:01.084Z,102041.42
2019-02-14T17:08:06.089Z,102034.48
2019-02-14T17:11:08.223Z,102025.78
2019-02-14T17:14:10.244Z,102041.80
2019-02-14T17:17:12.592Z,102038.56
2019-02-14T17:20:14.520Z,102032.16
2019-02-14T17:23:16.440Z,102029.03
2019-02-14T17:26:19.506Z,102028.20
2019-02-14T17:29:22.102Z,102022.23
2019-02-14T17:32:24.503Z,102020.24
2019-02-14T17:35:28.511Z,102020.24
2019-02-14T17:38:30.474Z,102027.19
2019-02-14T17:41:38.498Z,102019.17
2019-02-14T17:44:40.749Z,102010.34
2019-02-14T17:47:44.204Z,102008.47
2019-02-14T17:50:46.698Z,102013.59
2019-02-14T17:53:48.661Z,102019.31
2019-02-14T17:56:51.046Z,102026.26
2019-02-14T17:59:52.983Z,102024.80
2019-02-14T18:02:58.278Z,102024.56
2019-02-14T18:06:00.173Z,102030.01
2019-02-14T18:09:02.867Z,102027.02
2019-02-14T18:12:08.907Z,102030.77
2019-02-14T18:15:13.959Z,102031.39
2019-02-14T18:18:17.401Z,102029.40
2019-02-14T18:21:20.670Z,102032.05
2019-02-14T18:24:24.393Z,102047.70
2019-02-14T18:27:26.406Z,102053.02
2019-02-14T18:30:32.641Z,102054.09
2019-02-14T18:33:34.627Z,102053.64
2019-02-14T18:36:38.380Z,102049.36
2019-02-14T18:39:40.429Z,102043.58
2019-02-14T18:42:46.373Z,102052.35
2019-02-14T18:45:48.550Z,102039.01
2019-02-14T18:48:50.706Z,102048.31
2019-02-14T18:51:52.690Z,102048.14
2019-02-14T18:54:56.746Z,102044.03
2019-02-14T18:57:58.727Z,102042.19
2019-02-14T19:01:00.649Z,102039.02
2019-02-14T19:04:05.515Z,102034.36
2019-02-14T19:07:08.246Z,102032.77
2019-02-14T19:10:15.889Z,102026.63
2019-02-14T19:13:19.078Z,102021.81
2019-02-14T19:16:22.418Z,102021.16
2019-02-14T19:19:24.394Z,102019.45
2019-02-14T19:22:26.266Z,102020.91
2019-02-14T19:25:29.713Z,102019.77
2019-02-14T19:28:31.741Z,102021.71
2019-02-14T19:31:35.044Z,102022.83
2019-02-14T19:34:36.928Z,102026.25
2019-02-14T19:37:41.650Z,102027.63
2019-02-14T19:40:45.325Z,102029.00
2019-02-14T19:43:49.155Z,102017.94
2019-02-14T19:46:53.020Z,102017.84
2019-02-14T19:49:55.082Z,102013.44
2019-02-14T19:53:00.475Z,102028.83
2019-02-14T19:56:02.427Z,102027.45
2019-02-14T19:59:05.780Z,102031.41
2019-02-14T20:02:10.426Z,102032.04
2019-02-14T20:05:13.455Z,102024.11
2019-02-14T20:08:15.335Z,102021.36
2019-02-14T20:11:19.813Z,102027.39
2019-02-14T20:14:24.158Z,102030.67
2019-02-14T20:17:26.944Z,102035.08
2019-02-14T20:20:30.135Z,102031.05
2019-02-14T20:23:33.954Z,102031.30
2019-02-14T20:26:38.887Z,102034.33
2019-02-14T20:29:42.746Z,102032.12
2019-02-14T20:32:44.974Z,102030.55
2019-02-14T20:35:46.929Z,102032.34
2019-02-14T20:38:50.263Z,102027.92
2019-02-14T20:41:52.521Z,102027.09
2019-02-14T20:44:56.959Z,102021.60
2019-02-14T20:47:58.941Z,102026.47
2019-02-14T20:51:03.001Z,102027.75
2019-02-14T20:54:05.522Z,102024.32
2019-02-14T20:57:07.562Z,102030.47
2019-02-14T21:00:29.640Z,102029.24
2019-02-14T21:03:31.882Z,102028.38
2019-02-14T21:06:33.815Z,102036.55
2019-02-14T21:09:38.237Z,102042.63
2019-02-14T21:12:46.920Z,102039.88
2019-02-14T21:15:52.957Z,102041.16
2019-02-14T21:18:56.009Z,102034.21
2019-02-14T21:22:01.686Z,102036.90
2019-02-14T21:25:05.372Z,102031.47
2019-02-14T21:28:07.315Z,102042.89
2019-02-14T21:31:09.334Z,102031.41
2019-02-14T21:34:11.280Z,102036.80
2019-02-14T21:37:18.201Z,102035.11
2019-02-14T21:40:22.145Z,102034.33
2019-02-14T21:43:27.722Z,102035.52
2019-02-14T21:46:29.846Z,102035.81
2019-02-14T21:49:31.794Z,102034.34
2019-02-14T21:52:33.755Z,102027.78
2019-02-14T21:55:35.713Z,102029.98
2019-02-14T21:58:37.652Z,102022.73
2019-02-14T22:01:39.609Z,102020.20
2019-02-14T22:04:41.649Z,102022.20
2019-02-14T22:07:43.530Z,102023.88
2019-02-14T22:10:46.522Z,102030.73
2019-02-14T22:13:48.412Z,102025.06
2019-02-14T22:16:50.657Z,102022.06
2019-02-14T22:19:52.564Z,102015.56
2019-02-14T22:22:54.568Z,102017.88
2019-02-14T22:25:56.708Z,102028.33
2019-02-14T22:28:58.662Z,102026.33
2019-02-14T22:32:00.591Z,102028.00
2019-02-14T22:35:02.500Z,102027.12
2019-02-14T22:38:04.404Z,102028.58
2019-02-14T22:41:06.309Z,102024.38
2019-02-14T22:44:08.259Z,102025.84
2019-02-14T22:47:10.424Z,102020.69
2019-02-14T22:50:12.871Z,102023.10
2019-02-14T22:53:14.887Z,102025.01
2019-02-14T22:56:16.819Z,102026.19
2019-02-14T22:59:18.768Z,102025.65
2019-02-14T23:02:20.627Z,102030.09
2019-02-14T23:05:22.545Z,102030.19
2019-02-14T23:08:24.458Z,102022.08
2019-02-14T23:11:26.379Z,102026.00
2019-02-14T23:14:28.298Z,102020.13
2019-02-14T23:17:30.340Z,102024.67
2019-02-14T23:20:32.207Z,102031.09
2019-02-14T23:23:34.238Z,102034.16
2019-02-14T23:26:36.728Z,102036.23
2019-02-14T23:29:38.653Z,102033.63
2019-02-14T23:32:40.585Z,102036.16
2019-02-14T23:35:42.560Z,102038.91
2019-02-14T23:38:44.432Z,102043.95
2019-02-14T23:41:46.375Z,102037.00
2019-02-14T23:44:48.287Z,102034.06
2019-02-14T23:47:50.428Z,102037.78
2019-02-14T23:50:52.316Z,102036.17
2019-02-14T23:53:54.271Z,102037.14
2019-02-14T23:56:56.148Z,102036.30
2019-02-14T23:59:58.071Z,102039.88
